Tiempo atmosférico en la estación meteorológica de Reinosa, Cantabria (875 m.)



Fecha
DESCASC
Temp. máxima en grados centígrados (hora)
DESCASC
Temp. mínima en grados centígrados (hora)
DESCASC
Temp. media en grados centígrados
DESCASC
Racha de viento máxima en m/sg (hora)
DESCASC
Velocidad máxima media en intervalos de 10 minutos(hora)
DESCASC
Precipitaciones diarias en mm
DESCASC
Precipitaciones de 00:00 a 06:00 en mm
DESCASC
Precipitaciones de 06:00 a 12:00 en mm
DESCASC
Precipitaciones de 12:00 a 18:00 en mm
DESCASC
Precipitaciones de 18:00 a 24:00 en mm
DESCASC
17-10-2019 18.7 (16:30) 10.7 (09:20) 14.7 10.83 (14:00) 6.11 (14:00) 1.4 1.4 0 0 0
16-10-2019 14.2 (17:00) 9.4 (07:10) 11.8 13.06 (16:10) 8.33 (09:30) 0.3 0 0 0 0.3
15-10-2019 14.1 (16:30) -1.6 (07:20) 6.3 11.39 (17:50) 6.11 (17:30) 0 0 0 0 0
14-10-2019 17.6 (04:10) 6.5 (23:59) 12.1 23.89 (01:50) 10 (01:50) 5 0.2 4.4 0.2 0.2
13-10-2019 20.7 (00:20) 14.6 (00:00) 17.7 28.33 (02:40) 10.56 (08:50) 0 0 0 0 0
12-10-2019 24.8 (16:00) 14.1 (00:00) 19.4 21.11 (23:20) 8.33 (15:40) 0.3 0 0 0 0.3
11-10-2019 25.1 (16:00) 3.2 (00:00) 14.2 12.22 (14:10) 6.67 (16:10) 0.1 0 0 0 0.1
10-10-2019 19.1 (16:40) 2.4 (00:00) 10.8 4.17 (14:50) 2.5 (18:10) 0 0 0 0 0
09-10-2019 16.4 (13:50) 9.4 (00:00) 12.9 8.33 (13:50) 5 (13:10) 0 0 0 0 0
08-10-2019 22.8 (15:30) 4.1 (00:00) 13.4 15.56 (07:40) 4.72 (16:20) 0 0 0 0 0
07-10-2019 21.3 (16:00) 4.3 (00:00) 12.8 6.39 (16:20) 3.61 (16:20) 0 0 0 0 0
06-10-2019 16.3 (12:40) 5.8 (00:00) 11 6.39 (14:40) 3.61 (14:30) 0 0 0 0 0
05-10-2019 18.8 (15:00) 9.4 (00:00) 14.1 6.39 (15:10) 4.17 (16:30) 0 0 0 0 0
04-10-2019 18.5 (14:10) 4.4 (00:00) 11.5 6.67 (16:10) 4.17 (15:20) 0 0 0 0 0
03-10-2019 21.2 (16:10) 4.1 (00:00) 12.7 5.28 (11:30) 3.89 (17:50) 0 0 0 0 0
02-10-2019 17.3 (15:40) 7.6 (00:00) 12.4 9.72 (14:00) 6.39 (14:00) 0 0 0 0 0
01-10-2019 20.5 (14:30) 10.4 (00:00) 15.4 7.78 (15:50) 5 (15:50) 0.1 0 0.1 0 0
30-09-2019 24.5 (17:10) 3.5 (00:00) 14 7.5 (18:00) 3.89 (15:10) 0 0 0 0 0
29-09-2019 25.7 (16:00) 5.5 (00:00) 15.6 9.72 (14:00) 5 (13:40) 0 0 0 0 0
28-09-2019 23.4 (17:00) 8.4 (00:00) 15.9 9.72 (15:50) 5.28 (16:30) 0 0 0 0 0
27-09-2019 21.2 (15:00) 4.2 (00:00) 12.7 9.17 (17:50) 4.72 (18:00) 0 0 0 0 0
26-09-2019 23.7 (16:40) 9 (00:00) 16.4 7.22 (15:30) 4.72 (17:10) 0 0 0 0 0
25-09-2019 18.7 (15:40) 7.6 (00:00) 13.2 6.94 (12:20) 4.44 (12:10) 0 0 0 0 0
24-09-2019 20.5 (16:30) 11.7 (00:00) 16.1 13.33 (14:20) 7.78 (06:40) 0 0 0 0 0
23-09-2019 18.3 (23:40) 6.9 (00:00) 12.6 15 (23:40) 7.22 (23:40) 0 0 0 0 0
22-09-2019 19.3 (15:50) 8.4 (00:00) 13.8 16.11 (00:10) 5.83 (01:30) 2.4 2.1 0 0 0.3
21-09-2019 17.6 (12:10) 13.9 (00:00) 15.8 20.83 (21:10) 8.89 (21:10) 1.1 0.5 0 0 0.6
20-09-2019 23.2 (14:40) 7.5 (00:00) 15.4 9.72 (14:50) 5.56 (13:50) 9.4 0 0 0.7 8.7

Gráficas

Temp. máximas Temp. mínimas Temp. medias Precipitaciones Rachas de viento máximas Velocidades máximas media en intervalos de 10 minutos

Datos horarios

Fecha y hora oficial Temperatura (ºC) Velocidad del viento (km/h) Dirección del viento Racha (km/h) Dirección de racha Precipitación (mm) Presión (hPa) Tendencia (hPa) Humedad (%)
2019-10-19 23:00:00 8.4 3 Sudoeste 5 Oeste 2 904.7 0.5 94
2019-10-19 22:00:00 8.6 4 Nordeste 13 Nordeste 0.7 904.6 0.5 93
2019-10-19 21:00:00 9 8 Este 21 Noroeste 6.4 904.8 0.9 93
2019-10-19 20:00:00 10.3 6 Nordeste 25 Noroeste 7.1 904.2 -0.6 93
2019-10-19 19:00:00 11.6 11 Sur 34 Sudeste 2.5 904.1 -0.8 83
2019-10-19 18:00:00 10.9 17 Sur 38 Sur 1.3 903.9 -1.7 89
2019-10-19 17:00:00 11.6 13 Sur 36 Sudoeste 0.9 904.8 -1.8 78
2019-10-19 16:00:00 11.3 12 Sur 44 Sudeste 0.3 904.9 -2.4 78
2019-10-19 15:00:00 11.7 14 Sur 33 Sur 0.7 905.6 -2.2 79
2019-10-19 14:00:00 11.4 13 Sur 41 Sur 1.1 906.6 -1.4 78
2019-10-19 13:00:00 10.9 12 Sur 39 Sur 0 907.3 -1.1 84
2019-10-19 12:00:00 10.7 14 Sur 35 Sur 0.4 907.8 -0.5 85
2019-10-19 11:00:00 10.5 9 Sur 27 Sudoeste 0.4 908 -0.7 88
2019-10-19 10:00:00 10 13 Sudoeste 32 Sur 0 908.4 -1 89
2019-10-19 09:00:00 10.4 14 Sudoeste 28 Sudoeste 0 908.3 -1 88
2019-10-19 08:00:00 9.8 14 Sudoeste 34 Sudoeste 0 908.7 -0.9 88
2019-10-19 07:00:00 10.4 8 Sur 19 Sudoeste 0 909.4 -0.8 78
2019-10-19 06:00:00 10.6 8 Sudoeste 27 Sudoeste 0 909.3 -1.5 77
2019-10-19 05:00:00 10.8 5 Sudoeste 18 Sur 0.3 909.6 -1.6 78
2019-10-19 04:00:00 10.9 6 Sudeste 16 Sudeste 0 910.2 -0.8 76
2019-10-19 03:00:00 11.1 5 Sudeste 15 Sudeste 0 910.8 -0.9 72
2019-10-19 02:00:00 11.2 6 Sudeste 23 Sur 0 911.2 -0.8 77
2019-10-19 01:00:00 10.9 10 Sudeste 18 Sur 0.2 911 -1.1 78
2019-10-19 00:00:00 11.7 12 Sur 21 Sudeste 0 911.7 -0.7 69
2019-10-18 23:00:00 12.1 10 Sur 27 Sur 0 912 -0.6 61
2019-10-18 22:00:00 11.9 5 Sudoeste 19 Oeste 0 912.1 -0.7 55
2019-10-18 21:00:00 12.1 6 Sudoeste 16 Sur 0 912.4 -0.7 56
2019-10-18 20:00:00 12.2 12 Sur 27 Sur 0 912.6 -1.1 56
2019-10-18 19:00:00 12.5 14 Sur 30 Sur 0 912.8 -1 51
2019-10-18 18:00:00 13.8 15 Sur 28 Sudoeste 0 913.1 -1.3 51
2019-10-18 17:00:00 14.5 15 Sudoeste 33 Sudoeste 0 913.7 -1.6 43
2019-10-18 16:00:00 15.3 18 Sudoeste 33 Sudoeste 0 913.8 -2 43
2019-10-18 15:00:00 15.2 9 Sur 23 Sudeste 0 914.4 -1.7 43
2019-10-18 14:00:00 15 10 Sur 21 Sur 0 915.3 -1.3 50
2019-10-18 13:00:00 14.1 10 Este 16 Este 0 915.8 -0.2 69
2019-10-18 12:00:00 12.1 10 Este 16 Este 0 916.1 0.2 78
2019-10-18 11:00:00 10.3 8 Este 13 Este 0 916.6 0.8 87
2019-10-18 10:00:00 9.8 8 Este 16 Nordeste 0.1 916 0.4 93
2019-10-18 09:00:00 10 8 Este 14 Nordeste 0 915.9 0.7 94
2019-10-18 08:00:00 10.3 4 Este 7 Este 0 915.8 0.9 93
2019-10-18 07:00:00 10 2 Norte 4 Norte 0 915.6 0.8 91
2019-10-18 06:00:00 10.3 0 Calma 9 Oeste 0 915.2 0.5 92
2019-10-18 05:00:00 10 5 Oeste 15 Este 0 914.9 0.3 92
2019-10-18 04:00:00 10.1 8 Este 20 Este 0 914.8 0 92
2019-10-18 03:00:00 10.5 13 Este 21 Sur 0 914.7 -0.6 88
2019-10-18 02:00:00 12.5 15 Sur 23 Sur 0 914.6 -1 78
2019-10-18 01:00:00 12.3 2 Sur 16 Sur 0 914.8 -0.3 72
2019-10-18 00:00:00 12.3 5 Sur 17 Sur 0 915.3 0.2 71
2019-10-17 23:00:00 12.5 7 Sur 13 Sur 0 915.6 0.5 71
2019-10-17 22:00:00 13.5 8 Sur 14 Sur 0 915.1 0.5 70
2019-10-17 21:00:00 14.6 5 Sudoeste 24 Oeste 0 915.1 0.4 60
2019-10-17 20:00:00 15.8 10 Sudoeste 27 Sudoeste 0 915.1 0.6 51
2019-10-17 19:00:00 16.2 12 Sudoeste 26 Sudoeste 0 914.6 -0.2 51
2019-10-17 18:00:00 16.6 8 Sudoeste 35 Sudoeste 0 914.7 -0.2 50
2019-10-17 17:00:00 18.3 15 Sudoeste 34 Sudoeste 0 914.5 -0.8 43
2019-10-17 16:00:00 18.1 15 Sudoeste 32 Sudoeste 0 914.8 -0.7 44
2019-10-17 15:00:00 17.5 16 Sudoeste 37 Sudoeste 0 914.9 -0.7 49
2019-10-17 14:00:00 17 22 Sudoeste 39 Sudoeste 0 915.3 -0.1 49
2019-10-17 13:00:00 16 19 Sudoeste 35 Sudoeste 0 915.5 0.3 64
2019-10-17 12:00:00 14.2 15 Sur 31 Sudoeste 0 915.6 0.8 78
2019-10-17 11:00:00 12.3 17 Sur 31 Sur 0 915.4 1.1 91
2019-10-17 10:00:00 11.5 19 Sur 31 Sur 0 915.2 1.2 91
2019-10-17 09:00:00 11.1 16 Sur 31 Sudoeste 0 914.8 0.6 90
2019-10-17 08:00:00 11.2 9 Sur 32 Sur 0 914.3 -0.3 89
2019-10-17 07:00:00 11.1 17 Sur 34 Sur 0 914 -1.1 89
2019-10-17 06:00:00 11.1 15 Sudoeste 28 Sudoeste 0.1 914.2 -1.1 89
2019-10-17 05:00:00 11.6 5 Sudoeste 22 Oeste 0.3 914.6 -1 88
2019-10-17 04:00:00 11.7 3 Sudeste 21 Sudeste 0.8 915.1 -0.7 89
2019-10-17 03:00:00 11.8 8 Sudoeste 30 Sudoeste 0.2 915.3 -0.5 86
2019-10-17 02:00:00 12.2 15 Sudoeste 35 Sudoeste 0 915.6 -0.2 83
2019-10-17 01:00:00 11.8 15 Sudoeste 36 Oeste 0 915.8 0.3 86
2019-10-17 00:00:00 12.4 17 Sudoeste 39 Sudoeste 0 915.8 0 78
2019-10-16 23:00:00 12.3 6 Sudoeste 31 Sudoeste 0.1 915.8 -0.2 79
2019-10-16 22:00:00 12.2 5 Sudoeste 40 Sudoeste 0 915.5 -0.3 78
2019-10-16 21:00:00 12.5 17 Sudoeste 32 Sudoeste 0 915.8 0.1 78
2019-10-16 20:00:00 11.8 12 Sur 26 Sur 0.2 916 0.5 83
2019-10-16 19:00:00 12.3 9 Sudoeste 30 Sudoeste 0 915.8 0.2 75
2019-10-16 18:00:00 12.3 12 Sudoeste 35 Sur 0 915.7 -0.4 73
2019-10-16 17:00:00 14.2 9 Sudoeste 47 Sur 0 915.5 -0.8 67
2019-10-16 16:00:00 12.6 16 Sudoeste 44 Sudoeste 0 915.6 -0.7 70
2019-10-16 15:00:00 12.6 16 Sudoeste 47 Sudoeste 0 916.1 -0.4 71
2019-10-16 14:00:00 13.4 17 Sudoeste 38 Sudoeste 0 916.3 -0.3 65
2019-10-16 13:00:00 12 16 Sudoeste 39 Sudoeste 0 916.3 -0.3 70
2019-10-16 12:00:00 10.6 7 Sur 36 Sudoeste 0 916.5 1.1 78
2019-10-16 11:00:00 9.9 15 Sur 31 Sudoeste 0 916.6 1.1 83
2019-10-16 10:00:00 9.7 19 Sudoeste 47 Sur 0 916.6 0.8 78
2019-10-16 09:00:00 10.2 21 Sudoeste 42 Sur 0 915.4 0 75
2019-10-16 08:00:00 10 17 Sudoeste 38 Sudoeste 0 915.5 -0.6 78
2019-10-16 07:00:00 9.5 20 Sudoeste 45 Sudoeste 0 915.8 -0.6 79
2019-10-16 06:00:00 9.7 24 Sudoeste 44 Sur 0 915.4 -1.3 78
2019-10-16 05:00:00 10.2 21 Sudoeste 43 Sudoeste 0 916.1 -1.4 76
2019-10-16 04:00:00 10.4 14 Sudoeste 35 Sudoeste 0 916.4 -1 75
2019-10-16 03:00:00 10.1 19 Sudoeste 42 Sudoeste 0 916.7 -1.2 76
2019-10-16 02:00:00 10.3 10 Sudoeste 30 Sudoeste 0 917.5 -0.4 74
2019-10-16 01:00:00 10.3 14 Sudoeste 34 Oeste 0 917.4 -0.8 71
2019-10-16 00:00:00 10.5 13 Oeste 34 Oeste 0 917.9 -0.5 67
2019-10-15 23:00:00 10.5 6 Sudoeste 19 Oeste 0 917.9 -0.5 67
2019-10-15 22:00:00 10.2 6 Oeste 28 Sur 0 918.2 0.8 72
2019-10-15 21:00:00 10.4 10 Sudoeste 30 Sudoeste 0 918.4 0.7 73
2019-10-15 20:00:00 10.4 10 Sudoeste 35 Sudoeste 0 918.4 1 68
2019-10-15 19:00:00 11.3 17 Sudoeste 39 Oeste 0 917.4 -0.2 55
2019-10-15 18:00:00 12.3 16 Sudoeste 41 Sudoeste 0 917.7 -0.1 54
2019-10-15 17:00:00 12.2 13 Sudoeste 34 Sudoeste 0 917.4 -0.5 51
2019-10-15 16:00:00 13.3 16 Sudoeste 36 Sur 0 917.6 -0.5 47
2019-10-15 15:00:00 12.8 15 Sur 31 Sudoeste 0 917.8 -0.4 46
2019-10-15 14:00:00 12.7 13 Sur 24 Sur 0 917.9 -0.2 49
2019-10-15 13:00:00 11.9 13 Sur 27 Sur 0 918.1 0.3 52
2019-10-15 12:00:00 10.5 12 Sur 26 Sudeste 0 918.2 0.9 57
2019-10-15 11:00:00 9 3 Este 8 Este 0 918.1 0.9 65
2019-10-15 10:00:00 3.7 3 Oeste 9 Noroeste 0 917.8 1.3 94
2019-10-15 09:00:00 0.9 5 Sudoeste 9 Oeste 0 917.3 1.1 95
2019-10-15 08:00:00 0.2 4 Oeste 7 Oeste 0 917.2 1.2 95
2019-10-15 07:00:00 -1.1 4 Noroeste 6 Noroeste 0 916.5 0.8 95
2019-10-15 06:00:00 0.2 0 Calma 8 Noroeste 0 916.2 0.8 95
2019-10-15 05:00:00 1.2 3 Noroeste 8 Sudoeste 0 916 1.1 95
2019-10-15 04:00:00 1.6 3 Oeste 9 Sudeste 0 915.7 1.3 93
2019-10-15 03:00:00 4.1 6 Sur 12 Sur 0 915.4 1.7 92
2019-10-15 02:00:00 5.1 5 Sur 9 Sur 0 914.9 1.8 93
2019-10-15 01:00:00 4.9 2 Oeste 10 Oeste 0 914.4 1.9 93
2019-10-15 00:00:00 6.6 4 Sudeste 13 Este 0 913.7 1.6 91
2019-10-14 23:00:00 7.2 6 Este 18 Este 0 913.1 2.3 90
2019-10-14 22:00:00 8 7 Este 21 Este 0 912.5 2.1 88
2019-10-14 21:00:00 8.8 6 Este 11 Norte 0 912.1 1.8 90
2019-10-14 20:00:00 9.2 10 Sur 64 Sur 0 910.8 1.4 86
2019-10-14 19:00:00 9.6 17 Sudoeste 51 Sudoeste 0.2 910.4 0.7 76
2019-10-14 18:00:00 11 17 Sudoeste 48 Sudoeste 0 910.3 1 76
2019-10-14 17:00:00 11.4 21 Sudoeste 53 Sudoeste 0 909.4 -0.1 72
2019-10-14 16:00:00 11.1 20 Sudoeste 53 Sudoeste 0.1 909.7 0.5 75
2019-10-14 15:00:00 12.1 24 Sudoeste 52 Sudoeste 0 909.3 0.1 72
2019-10-14 14:00:00 12.5 23 Sudoeste 52 Sudoeste 0 909.5 1.6 62
2019-10-14 13:00:00 12.6 22 Sudoeste 59 Sudoeste 0.1 909.2 0.8 70
2019-10-14 12:00:00 11.3 28 Sudoeste 50 Sudoeste 2.9 909.2 1.5 79
2019-10-14 11:00:00 13.3 18 Sudoeste 52 Sudoeste 0.3 907.9 0.3 78
2019-10-14 10:00:00 13.8 14 Sur 55 Sudeste 0.5 908.4 0 76
2019-10-14 09:00:00 13.7 9 Sur 31 Sur 0.3 907.7 -0.4 71
2019-10-14 08:00:00 14 12 Sur 39 Sudoeste 0.4 907.6 0 69
2019-10-14 07:00:00 14.7 9 Sudoeste 39 Oeste 0 908.4 0.4 63
2019-10-14 06:00:00 16.1 26 Sudoeste 51 Sudoeste 0.1 908.1 -0.6 58
2019-10-14 05:00:00 16.4 32 Sudoeste 63 Sudoeste 0.1 907.6 -1.6 54
2019-10-14 04:00:00 17.2 34 Sudoeste 69 Sudoeste 0 908 -2.1 50
2019-10-14 03:00:00 16.9 31 Sudoeste 72 Sudoeste 0 908.7 -2.3 51
2019-10-14 02:00:00 16.2 31 Sudoeste 86 Sudoeste 0 909.2 -2.7 52
2019-10-14 01:00:00 16 25 Sudoeste 58 Sudoeste 0 910.1 -1.4 51
2019-10-14 00:00:00 16.4 9 Sur 45 Sudoeste 0 911 -0.7 49
2019-10-13 23:00:00 16.5 8 Sur 61 Oeste 0 911.9 0.3 47
2019-10-13 22:00:00 18.2 17 Sudoeste 51 Sur 0 911.5 -0.8 43
2019-10-13 21:00:00 18.8 20 Sur 54 Sur 0 911.7 -0.8 42
2019-10-13 20:00:00 19.1 15 Sur 46 Sur 0 911.6 -1.7 43
2019-10-13 19:00:00 19.7 12 Sur 45 Sur 0 912.3 -1.4 42
2019-10-13 18:00:00 20.6 12 Sur 31 Sur 0 912.5 -1.6 42
2019-10-13 17:00:00 20.4 12 Sur 33 Sur 0 913.3 -0.9 43
2019-10-13 16:00:00 20 12 Sudoeste 35 Sudoeste 0 913.7 -0.1 48
2019-10-13 15:00:00 18.9 21 Sudoeste 43 Sudoeste 0 914.1 0.7 49
2019-10-13 14:00:00 19.4 19 Sudoeste 46 Sudoeste 0 914.2 1 50
2019-10-13 13:00:00 17.9 27 Sudoeste 55 Sudoeste 0 913.8 0.4 51
2019-10-13 12:00:00 16.8 26 Sudoeste 54 Sudoeste 0 913.4 1.6 56
2019-10-13 11:00:00 15.9 32 Sudoeste 75 Sudoeste 0 913.2 1.7 61
2019-10-13 10:00:00 14.7 32 Sudoeste 65 Sudoeste 0 913.4 2.1 68
2019-10-13 09:00:00 14.9 34 Sudoeste 74 Sudoeste 0 911.8 1.6 67
2019-10-13 08:00:00 15.7 36 Sudoeste 75 Sudoeste 0 911.5 0.9 71
2019-10-13 07:00:00 15.9 30 Sur 77 Sur 0 911.3 0.2 73
2019-10-13 06:00:00 16.6 22 Sur 72 Sur 0 910.2 -0.8 63
2019-10-13 05:00:00 16.8 19 Sur 71 Sudoeste 0 910.6 -0.6 56
2019-10-13 04:00:00 17.4 19 Sur 66 Sur 0 911.1 -0.8 45
2019-10-13 03:00:00 18.3 26 Sur 102 Sudeste 0 911 -1.1 43
2019-10-13 02:00:00 19.4 34 Sur 88 Sur 0 911.2 -1.3 42
2019-10-13 01:00:00 19.8 25 Sur 89 Sudeste 0 911.9 -0.6 40
2019-10-13 00:00:00 20.5 18 Sur 76 Sudeste 0 912.1 -0.7 39
2019-10-12 23:00:00 20.4 15 Sur 47 Sur 0 912.5 0.2 39
2019-10-12 22:00:00 20.7 17 Sur 46 Sur 0 912.5 0.6 39
2019-10-12 21:00:00 21.2 16 Sur 53 Sudoeste 0.3 912.8 0.7 39
2019-10-12 20:00:00 23.1 27 Sudoeste 64 Sudoeste 0 912.3 -0.1 31
2019-10-12 19:00:00 23.3 9 Sur 54 Oeste 0 911.9 -0.8 32
2019-10-12 18:00:00 24.1 15 Sudoeste 65 Sudeste 0 912.1 -1.3 32
2019-10-12 17:00:00 24.1 26 Sudoeste 53 Sudoeste 0 912.4 -2.2 32
2019-10-12 16:00:00 24.7 23 Sudoeste 64 Sudoeste 0 912.7 -2.5 33
2019-10-12 15:00:00 24 22 Sudoeste 64 Sudoeste 0 913.4 -2.3 36
2019-10-12 14:00:00 22.6 21 Sudoeste 48 Sur 0 914.6 -1.3 40
2019-10-12 13:00:00 21.7 14 Sudoeste 52 Sudoeste 0 915.2 -0.1 48
2019-10-12 12:00:00 20 23 Sudoeste 50 Sudoeste 0 915.7 0.7 54
2019-10-12 11:00:00 19 19 Sur 40 Sur 0 915.9 1.1 56
2019-10-12 10:00:00 18.3 17 Sudoeste 38 Sudoeste 0 915.3 0.5 58
2019-10-12 09:00:00 17.3 22 Sudoeste 41 Sudoeste 0 915 0.3 59
2019-10-12 08:00:00 17.7 19 Sudoeste 40 Sudoeste 0 914.8 -0.1 56
2019-10-12 07:00:00 16.6 17 Sur 36 Sudoeste 0 914.8 -0.3 61
2019-10-12 06:00:00 16 18 Sur 29 Sudeste 0 914.7 -0.8 65
2019-10-12 05:00:00 16.5 12 Sur 25 Sudeste 0 914.9 -1 63
2019-10-12 04:00:00 17.4 8 Sur 37 Sur 0 915.1 -1.4 61
2019-10-12 03:00:00 18.4 17 Sudoeste 34 Sudoeste 0 915.5 -1.6 58
2019-10-12 02:00:00 17.7 12 Sur 31 Sur 0 915.9 -1.7 63
2019-10-12 01:00:00 17.7 10 Sur 31 Sur 0 916.5 0.1 66
2019-10-12 00:00:00 15.6 3 Oeste 17 Sudeste 0.1 917.1 0.9 75
2019-10-11 23:00:00 14.7 4 Sudoeste 10 Oeste 0 917.6 1.1 73
2019-10-11 22:00:00 15.2 2 Oeste 9 Noroeste 0 916.4 0 64
2019-10-11 21:00:00 17 2 Sudoeste 8 Sur 0 916.2 -0.5 47
2019-10-11 20:00:00 20.9 6 Oeste 27 Sudoeste 0 916.5 -0.4 37
2019-10-11 19:00:00 23.1 15 Sudoeste 37 Sudoeste 0 916.4 -0.8 33
2019-10-11 18:00:00 24.1 17 Sudoeste 36 Sur 0 916.7 -1 31
2019-10-11 17:00:00 24.6 19 Sudoeste 37 Sudoeste 0 916.9 -1.9 30
2019-10-11 16:00:00 25.1 18 Sudoeste 39 Sudoeste 0 917.2 -2.1 30
2019-10-11 15:00:00 24.8 15 Sudoeste 44 Sudoeste 0 917.7 -1.9 30
2019-10-11 14:00:00 23.7 18 Sudoeste 33 Sudoeste 0 918.8 -1.4 31
2019-10-11 13:00:00 22.3 10 Sur 23 Sudoeste 0 919.3 -0.6 33
2019-10-11 12:00:00 19.7 11 Sur 19 Sudeste 0 919.6 -0.2 40
2019-10-11 11:00:00 16 0 Calma 12 Oeste 0 920.2 0.9 51
2019-10-11 10:00:00 12.3 6 Sudoeste 12 Sudoeste 0 919.9 0.8 63
2019-10-11 09:00:00 6.2 5 Oeste 10 Oeste 0 919.8 0.7 83
2019-10-11 08:00:00 7.9 0 Calma 13 Sudeste 0 919.3 0.2 71
2019-10-11 07:00:00 5.7 4 Noroeste 15 Noroeste 0 919.1 -0.4 86
2019-10-11 06:00:00 7 6 Oeste 15 Noroeste 0 919.1 -1.2 80
2019-10-11 05:00:00 8 4 Oeste 15 Oeste 0 919.1 -0.9 78
2019-10-11 04:00:00 6.4 4 Oeste 14 Oeste 0 919.5 -1.1 86
2019-10-11 03:00:00 6.6 7 Oeste 13 Oeste 0 920.3 -0.7 83
2019-10-11 02:00:00 7.2 5 Oeste 17 Noroeste 0 920 -1.1 91
2019-10-11 01:00:00 3.9 4 Oeste 9 Sudoeste 0 920.6 -0.2 93
2019-10-11 00:00:00 6.2 2 Oeste 6 Oeste 0 921 0.1 93
2019-10-10 23:00:00 8 0 Calma 7 Oeste 0 921.1 0.4 89
2019-10-10 22:00:00 9.4 6 Oeste 10 Oeste 0 920.8 0.2 87
2019-10-10 21:00:00 9.2 5 Oeste 6 Oeste 0 920.9 0.1 88
2019-10-10 20:00:00 12.5 0 Calma 10 Este 0 920.7 -0.3 77
2019-10-10 19:00:00 15.7 7 Este 14 Este 0 920.6 -1 59
2019-10-10 18:00:00 18.1 8 Este 14 Este 0 920.8 -1.2 44
2019-10-10 17:00:00 18.7 5 Este 13 Este 0 921 -2 42
2019-10-10 16:00:00 18.1 6 Nordeste 14 Nordeste 0 921.6 -1.8 46
2019-10-10 15:00:00 17.6 4 Nordeste 15 Este 0 922 -1.8 50
2019-10-10 14:00:00 16.2 5 Este 13 Este 0 923 -0.9 51
2019-10-10 13:00:00 15.1 4 Nordeste 11 Nordeste 0 923.4 -0.5 55
2019-10-10 12:00:00 13.4 5 Este 11 Este 0 923.8 0.4 59
2019-10-10 11:00:00 11.4 0 Calma 4 Sur 0 923.9 0.7 71
2019-10-10 10:00:00 6.8 0 Calma 4 Sudoeste 0 923.9 1 93
2019-10-10 09:00:00 3.8 0 Calma 4 Oeste 0 923.4 0.9 94
2019-10-10 08:00:00 2.9 0 Calma 9 Oeste 0 923.2 0.4 93
2019-10-10 07:00:00 3.7 2 Oeste 8 Oeste 0 922.9 0 92
2019-10-10 06:00:00 5.1 4 Oeste 8 Noroeste 0 922.5 -0.4 91
2019-10-10 05:00:00 6.6 5 Noroeste 9 Noroeste 0 922.8 -0.4 94
2019-10-10 04:00:00 6.7 2 Sudeste 4 Sur 0 922.9 -0.3 94
2019-10-10 03:00:00 7.6 0 Calma 5 Noroeste 0 922.9 -0.3 94
2019-10-10 02:00:00 6.3 0 Calma 9 Este 0 923.2 0.1 93
2019-10-10 01:00:00 8.5 0 Calma 8 Nordeste 0 923.2 0.3 91
2019-10-10 00:00:00 9.6 3 Este 10 Este 0 923.2 0.3 89
2019-10-09 23:00:00 9.4 8 Este 18 Este 0 923.1 0.5 90
2019-10-09 22:00:00 10.2 6 Este 11 Nordeste 0 922.9 0.8 88
2019-10-09 21:00:00 10.5 4 Nordeste 13 Nordeste 0 922.9 0.7 85
2019-10-09 20:00:00 11.1 4 Nordeste 13 Norte 0 922.6 0.3 78
2019-10-09 19:00:00 11.7 0 Calma 20 Norte 0 922.1 0.2 69
2019-10-09 18:00:00 11.5 8 Norte 15 Norte 0 922.2 0.4 67
2019-10-09 17:00:00 12.2 7 Nordeste 20 Norte 0 922.3 0.4 71
2019-10-09 16:00:00 13.5 11 Norte 21 Nordeste 0 921.9 0.1 66
2019-10-09 15:00:00 14.3 5 Norte 21 Norte 0 921.8 -0.6 61
2019-10-09 14:00:00 14.3 12 Nordeste 30 Sudeste 0 921.9 0 57
2019-10-09 13:00:00 14.5 14 Este 28 Noroeste 0 921.8 0.2 57
2019-10-09 12:00:00 13.3 9 Norte 25 Norte 0 922.4 1.2 58
2019-10-09 11:00:00 13.5 13 Norte 24 Noroeste 0 921.9 1.4 57
2019-10-09 10:00:00 11 3 Este 10 Sudeste 0 921.6 1.1 84
2019-10-09 09:00:00 10.1 0 Calma 7 Noroeste 0 921.2 1.1 86
2019-10-09 08:00:00 10 2 Sudeste 15 Noroeste 0 920.5 0.5 90
2019-10-09 07:00:00 9.6 9 Noroeste 13 Noroeste 0 920.5 1 89
2019-10-09 06:00:00 9.6 0 Calma 22 Norte 0 920.1 0.6 87
2019-10-09 05:00:00 10.5 12 Noroeste 19 Noroeste 0 920 0.1 84
2019-10-09 04:00:00 10.8 7 Este 12 Este 0 919.5 -0.9 93
2019-10-09 03:00:00 10.7 2 Este 10 Este 0 919.5 -1 93
2019-10-09 02:00:00 10.9 5 Este 10 Este 0 919.9 -0.7 91
2019-10-09 01:00:00 11.6 3 Nordeste 14 Este 0 920.4 0 91
2019-10-09 00:00:00 12.3 5 Este 9 Este 0 920.5 0.1 90
2019-10-08 23:00:00 12.2 4 Este 10 Este 0 920.6 0.6 90
2019-10-08 22:00:00 12.7 3 Nordeste 11 Este 0 920.4 0.7 87
2019-10-08 21:00:00 13 5 Este 12 Este 0 920.4 0.8 86
2019-10-08 20:00:00 14.1 5 Este 21 Este 0 920 0.7 86
2019-10-08 19:00:00 15.7 3 Nordeste 18 Noroeste 0 919.7 0.9 77
2019-10-08 18:00:00 16.2 9 Norte 24 Noroeste 0 919.6 0.9 78
2019-10-08 17:00:00 17 8 Nordeste 35 Nordeste 0 919.3 0.4 78
2019-10-08 16:00:00 21.3 15 Nordeste 27 Este 0 918.8 -0.5 56
2019-10-08 15:00:00 22.3 10 Nordeste 19 Este 0 918.7 -1 48
2019-10-08 14:00:00 21.7 9 Nordeste 18 Este 0 918.9 -0.8 46
2019-10-08 13:00:00 21.1 5 Este 13 Este 0 919.3 -0.1 41
2019-10-08 12:00:00 19.2 3 Sudeste 9 Este 0 919.7 -0.1 51
2019-10-08 11:00:00 14.7 0 Calma 5 Este 0 919.7 0 66
2019-10-08 10:00:00 10.5 0 Calma 5 Noroeste 0 919.4 -0.4 89
2019-10-08 09:00:00 7 2 Noroeste 7 Oeste 0 919.8 -0.2 93
2019-10-08 08:00:00 6 0 Calma 56 Oeste 0 919.7 -0.7 94
2019-10-08 07:00:00 5 0 Calma 6 Noroeste 0 919.8 -1.2 93
2019-10-08 06:00:00 5.6 0 Calma 8 Noroeste 0 920 -1.5 93
2019-10-08 05:00:00 5.8 4 Noroeste 8 Oeste 0 920.4 -1.2 93
2019-10-08 04:00:00 6.4 4 Noroeste 10 Oeste 0 921 -0.7 93
2019-10-08 03:00:00 6.8 2 Noroeste 4 Sudoeste 0 921.5 -0.6 92
2019-10-08 02:00:00 7.7 0 Calma 6 Noroeste 0 921.6 -0.5 92
2019-10-08 01:00:00 8.8 2 Sudoeste 8 Sudoeste 0 921.7 0.2 91
2019-10-08 00:00:00 8 3 Oeste 7 Oeste 0 922.1 0.6 90
2019-10-07 23:00:00 9.5 0 Calma 10 Noroeste 0 922.1 0.6 90
2019-10-07 22:00:00 11.3 3 Sudoeste 9 Sudoeste 0 921.5 -0.2 86
2019-10-07 21:00:00 10.9 5 Noroeste 7 Noroeste 0 921.5 0 84
2019-10-07 20:00:00 13.5 0 Calma 9 Este 0 921.5 -0.1 71
2019-10-07 19:00:00 17.5 6 Este 14 Este 0 921.7 0.1 55
2019-10-07 18:00:00 19.9 10 Este 15 Nordeste 0 921.5 -0.3 47
2019-10-07 17:00:00 20.6 8 Nordeste 23 Nordeste 0 921.6 -0.7 43
2019-10-07 16:00:00 21.3 9 Este 17 Este 0 921.6 -0.7 41
2019-10-07 15:00:00 20.6 6 Este 17 Este 0 921.8 -0.7 41
2019-10-07 14:00:00 19.2 9 Este 22 Este 0 922.3 -0.2 43
2019-10-07 13:00:00 18.4 5 Este 11 Sur 0 922.3 0.3 41
2019-10-07 12:00:00 16.2 3 Sur 6 Sudeste 0 922.5 0.5 55
2019-10-07 11:00:00 12.4 0 Calma 4 Sudoeste 0 922.5 0.7 74
2019-10-07 10:00:00 9.6 3 Sudoeste 6 Noroeste 0 922 0.5 90
2019-10-07 09:00:00 6 3 Oeste 7 Noroeste 0 922 0.7 93
2019-10-07 08:00:00 4.7 3 Oeste 6 Oeste 0 921.8 0.3 93
2019-10-07 07:00:00 6.1 5 Oeste 10 Oeste 0 921.5 -0.7 93
2019-10-07 06:00:00 6.1 5 Oeste 7 Sur 0 921.3 -1.5 93
2019-10-07 05:00:00 8.4 3 Sur 9 Noroeste 0 921.5 -1.3 92
2019-10-07 04:00:00 9.3 8 Noroeste 10 Noroeste 0 922.2 -0.8 93
2019-10-07 03:00:00 10.5 4 Este 8 Sudeste 0 922.8 -0.4 93
2019-10-07 02:00:00 10.7 3 Este 8 Este 0 922.8 -0.5 93
2019-10-07 01:00:00 10.8 3 Este 7 Este 0 923 -0.1 93
2019-10-07 00:00:00 10.9 0 Calma 7 Este 0 923.2 0.1 93
2019-10-06 23:00:00 11 0 Calma 11 Este 0 923.3 0.7 93
2019-10-06 22:00:00 10.9 6 Este 22 Este 0 923.1 0.5 93
2019-10-06 21:00:00 11.6 11 Nordeste 21 Este 0 923.1 0.7 92
2019-10-06 20:00:00 12.1 8 Este 17 Este 0 922.6 0.1 91
2019-10-06 19:00:00 13.1 12 Este 18 Este 0 922.6 0.1 87
2019-10-06 18:00:00 14.2 6 Norte 16 Norte 0 922.4 -0.1 78
2019-10-06 17:00:00 14.1 8 Norte 20 Norte 0 922.5 0 78
2019-10-06 16:00:00 14.8 5 Nordeste 18 Este 0 922.5 -0.1 83
2019-10-06 15:00:00 14.7 9 Norte 23 Noroeste 0 922.5 0 78
2019-10-06 14:00:00 15.2 9 Nordeste 21 Este 0 922.5 0.3 78
2019-10-06 13:00:00 15.4 8 Este 15 Este 0 922.6 0.5 75
2019-10-06 12:00:00 15 4 Sudeste 8 Sudeste 0 922.5 0.8 77
2019-10-06 11:00:00 12.7 0 Calma 5 Sudeste 0 922.2 1.5 91
2019-10-06 10:00:00 10.7 0 Calma 7 Sudoeste 0 922.1 1.3 94
2019-10-06 09:00:00 8.4 0 Calma 7 Sur 0 921.7 1 93
2019-10-06 08:00:00 6.7 3 Oeste 7 Sur 0 920.7 0.5 93
2019-10-06 07:00:00 6.6 3 Sudoeste 7 Oeste 0 920.8 0.2 93
2019-10-06 06:00:00 7 3 Noroeste 9 Noroeste 0 920.7 -0.1 93
2019-10-06 05:00:00 8.1 2 Sur 8 Sur 0 920.2 -0.5 93
2019-10-06 04:00:00 9.8 0 Calma 5 Noroeste 0 920.6 0 91
2019-10-06 03:00:00 11.5 4 Sudeste 5 Sudeste 0 920.8 0.1 90
2019-10-06 02:00:00 11.6 0 Calma 9 Este 0 920.7 0 91
2019-10-06 01:00:00 11.7 5 Este 12 Este 0 920.6 0.2 91
2019-10-06 00:00:00 12 7 Este 12 Este 0 920.7 0.7 92
2019-10-05 23:00:00 12 0 Calma 9 Este 0 920.7 1.2 92
2019-10-05 22:00:00 12 4 Nordeste 15 Este 0 920.4 1.6 92
2019-10-05 21:00:00 12.4 8 Este 12 Este 0 920 1.6 90
2019-10-05 20:00:00 13.2 6 Este 16 Este 0 919.5 1.3 89
2019-10-05 19:00:00 14.3 6 Este 20 Este 0 918.8 0.6 84
2019-10-05 18:00:00 16.1 13 Este 23 Este 0 918.4 0.2 73
2019-10-05 17:00:00 17.3 11 Este 22 Este 0 918.2 -0.5 66
2019-10-05 16:00:00 18.1 13 Este 23 Este 0 918.2 -1 64
2019-10-05 15:00:00 18.5 13 Este 21 Este 0 918.2 -1.1 62
2019-10-05 14:00:00 17.8 5 Nordeste 13 Este 0 918.7 -0.5 63
2019-10-05 13:00:00 15.4 3 Sudeste 9 Sudoeste 0 919.2 0.2 73
2019-10-05 12:00:00 13 3 Sur 8 Sudeste 0 919.3 0.7 83
2019-10-05 11:00:00 11.5 3 Norte 7 Noroeste 0 919.2 0.9 94
2019-10-05 10:00:00 9.8 0 Calma 8 Noroeste 0 919 0.7 93
2019-10-05 09:00:00 9.4 5 Noroeste 10 Noroeste 0 918.6 0.1 93
2019-10-05 08:00:00 10.3 4 Noroeste 8 Noroeste 0 918.3 -0.3 93
2019-10-05 07:00:00 10.6 3 Oeste 8 Noroeste 0 918.3 -0.7 92
2019-10-05 06:00:00 10.8 3 Noroeste 10 Oeste 0 918.5 -0.8 90
2019-10-05 05:00:00 11.2 2 Sudoeste 6 Sudoeste 0 918.6 -0.7 90
2019-10-05 04:00:00 11.7 0 Calma 8 Oeste 0 919 -0.8 88
2019-10-05 03:00:00 11.8 4 Oeste 7 Sudoeste 0 919.3 -0.5 88
2019-10-05 02:00:00 11.7 0 Calma 4 Este 0 919.3 -0.6 92
2019-10-05 01:00:00 11.5 0 Calma 2 Este 0 919.8 -0.1 92
2019-10-05 00:00:00 11.4 0 Calma 8 Este 0 919.8 0.4 92
2019-10-04 23:00:00 11.5 6 Este 12 Nordeste 0 919.9 0.7 92
2019-10-04 22:00:00 12.1 7 Nordeste 17 Este 0 919.9 1 91
2019-10-04 21:00:00 12.6 0 Calma 6 Sudeste 0 919.4 0.9 91
2019-10-04 20:00:00 12.9 5 Este 11 Este 0 919.2 0.6 89
2019-10-04 19:00:00 14.1 5 Este 17 Este 0 918.9 0.4 85
2019-10-04 18:00:00 14.4 8 Este 17 Este 0 918.5 -0.2 86
2019-10-04 17:00:00 15.1 8 Nordeste 24 Nordeste 0 918.6 -0.9 83
2019-10-04 16:00:00 16.3 12 Nordeste 24 Este 0 918.5 -1.5 76
2019-10-04 15:00:00 18.1 12 Este 19 Este 0 918.7 -1.8 67
2019-10-04 14:00:00 18.1 8 Nordeste 23 Nordeste 0 919.5 -1 69
2019-10-04 13:00:00 17.7 8 Este 17 Este 0 920 0.1 70
2019-10-04 12:00:00 15.7 5 Sudeste 11 Este 0 920.5 0.7 76
2019-10-04 11:00:00 14.1 4 Sudeste 6 Este 0 920.5 1.1 82
2019-10-04 10:00:00 10.8 0 Calma 5 Oeste 0 919.9 0.7 93
2019-10-04 09:00:00 5.9 0 Calma 5 Oeste 0 919.8 0.4 93
2019-10-04 08:00:00 5.5 2 Oeste 6 Oeste 0 919.4 0 93
2019-10-04 07:00:00 5 0 Calma 6 Oeste 0 919.2 -0.3 93
2019-10-04 06:00:00 4.5 4 Sudoeste 10 Noroeste 0 919.4 -0.5 93
2019-10-04 05:00:00 6 0 Calma 9 Sudoeste 0 919.4 -0.6 93
2019-10-04 04:00:00 6.1 2 Oeste 7 Oeste 0 919.5 -1 93
2019-10-04 03:00:00 7.3 0 Calma 7 Oeste 0 919.9 -0.7 93
2019-10-04 02:00:00 7.3 3 Oeste 7 Oeste 0 920 -0.8 93
2019-10-04 01:00:00 7.1 0 Calma 6 Oeste 0 920.5 0 93
2019-10-04 00:00:00 8.8 0 Calma 5 Oeste 0 920.6 0.1 93
2019-10-03 23:00:00 9 5 Oeste 7 Oeste 0 920.8 0.7 91
2019-10-03 22:00:00 10.5 0 Calma 6 Norte 0 920.5 0.8 89
2019-10-03 21:00:00 12.7 4 Sudeste 8 Sudoeste 0 920.5 0.8 78
2019-10-03 20:00:00 14.5 0 Calma 13 Nordeste 0 920.1 0.6 72
2019-10-03 19:00:00 16.6 9 Este 16 Nordeste 0 919.7 -0.1 63
2019-10-03 18:00:00 19.4 10 Este 19 Este 0 919.7 -0.3 55
2019-10-03 17:00:00 20.7 8 Este 18 Este 0 919.5 -0.9 47
2019-10-03 16:00:00 20.8 2 Nordeste 13 Este 0 919.8 -0.5 43
2019-10-03 15:00:00 19.6 5 Este 17 Nordeste 0 920 -0.5 47
2019-10-03 14:00:00 18.5 3 Nordeste 12 Sur 0 920.4 -0.2 45
2019-10-03 13:00:00 16.1 6 Sudeste 14 Sudeste 0 920.3 -0.3 52
2019-10-03 12:00:00 13.4 10 Sudeste 19 Sudeste 0 920.5 0.3 68
2019-10-03 11:00:00 11.4 9 Sur 15 Sur 0 920.6 0.5 76
2019-10-03 10:00:00 8.6 4 Oeste 7 Noroeste 0 920.6 0.8 86
2019-10-03 09:00:00 5.1 4 Oeste 10 Oeste 0 920.2 0.3 90
2019-10-03 08:00:00 4.6 5 Oeste 9 Oeste 0 920.1 0.3 86
2019-10-03 07:00:00 7.2 7 Oeste 9 Oeste 0 919.8 -0.6 83
2019-10-03 06:00:00 9.1 7 Noroeste 13 Noroeste 0 919.9 -1.2 83
2019-10-03 05:00:00 10.2 5 Oeste 9 Noroeste 0 919.8 -1.6 85
2019-10-03 04:00:00 11 2 Noroeste 4 Noroeste 0 920.4 -1.4 91
2019-10-03 03:00:00 10.9 0 Calma 4 Sudeste 0 921.1 -1.1 91
2019-10-03 02:00:00 10.8 0 Calma 16 Este 0 921.4 -1.1 91
2019-10-03 01:00:00 10.6 10 Este 18 Este 0 921.8 -0.6 92
2019-10-03 00:00:00 10.9 12 Este 16 Este 0 922.2 0.1 92
2019-10-02 23:00:00 11.2 8 Nordeste 18 Nordeste 0 922.5 0.5 92
2019-10-02 22:00:00 11.6 5 Nordeste 15 Nordeste 0 922.4 1 91
2019-10-02 21:00:00 11.9 8 Este 15 Este 0 922.1 1.1 88
2019-10-02 20:00:00 12.5 4 Este 13 Este 0 922 1.3 82
2019-10-02 19:00:00 13.1 5 Este 19 Este 0 921.4 0.6 78
2019-10-02 18:00:00 14.3 12 Norte 24 Noroeste 0 921 0.1 64
2019-10-02 17:00:00 16.6 8 Nordeste 28 Nordeste 0 920.7 -0.2 58
2019-10-02 16:00:00 16.5 10 Norte 27 Norte 0 920.8 -0.3 55
2019-10-02 15:00:00 16.6 11 Norte 34 Noroeste 0 920.9 0.2 56
2019-10-02 14:00:00 15.7 23 Norte 35 Norte 0 920.9 0.4 57
2019-10-02 13:00:00 13.4 19 Norte 33 Norte 0 921.1 1.4 64
2019-10-02 12:00:00 13.5 16 Norte 25 Noroeste 0 920.7 2 64
2019-10-02 11:00:00 12.1 11 Noroeste 25 Noroeste 0 920.5 2.2 76
2019-10-02 10:00:00 10.8 2 Sudoeste 5 Sudoeste 0 919.7 1.8 79
2019-10-02 09:00:00 9.4 2 Sur 8 Noroeste 0 918.7 1.3 86
2019-10-02 08:00:00 9 2 Sur 6 Sudoeste 0 918.3 0.8 84
2019-10-02 07:00:00 8.9 2 Sudoeste 10 Norte 0 917.9 0.3 83
2019-10-02 06:00:00 9.1 4 Sur 6 Sudeste 0 917.4 -0.5 86
2019-10-02 05:00:00 9.5 0 Calma 9 Oeste 0 917.5 -0.4 86
2019-10-02 04:00:00 9.5 8 Oeste 24 Noroeste 0 917.6 -0.2 85
2019-10-02 03:00:00 10.1 3 Sudoeste 13 Sur 0 917.9 0.1 91
2019-10-02 02:00:00 10.7 2 Sudoeste 9 Este 0 917.9 0.6 91
2019-10-02 01:00:00 11.5 3 Noroeste 9 Noroeste 0 917.8 0.8 93
2019-10-02 00:00:00 11.6 3 Norte 6 Este 0 917.8 1.2 93
2019-10-01 23:00:00 12.2 3 Este 9 Este 0 917.3 1.1 91
2019-10-01 22:00:00 12.9 3 Este 12 Este 0 917 1.1 91
2019-10-01 21:00:00 12.8 10 Este 14 Este 0 916.6 0.8 91
2019-10-01 20:00:00 13.7 6 Este 15 Este 0 916.2 1 85
2019-10-01 19:00:00 14.5 3 Nordeste 20 Nordeste 0 915.9 0.9 83
2019-10-01 18:00:00 14.2 9 Nordeste 27 Nordeste 0 915.8 0.7 91
2019-10-01 17:00:00 16 12 Nordeste 26 Nordeste 0 915.2 -0.3 83
2019-10-01 16:00:00 17.8 13 Nordeste 28 Nordeste 0 915 -0.7 69
2019-10-01 15:00:00 19.2 14 Este 27 Este 0 915.1 -0.6 61
2019-10-01 14:00:00 19.5 8 Nordeste 25 Este 0 915.5 -0.2 60
2019-10-01 13:00:00 18.1 7 Este 24 Este 0 915.7 0.2 63
2019-10-01 12:00:00 18.2 8 Este 17 Este 0 915.7 0.7 73
2019-10-01 11:00:00 14.9 2 Sudeste 6 Sur 0 915.7 1.2 93
2019-10-01 10:00:00 12.4 0 Calma 5 Oeste 0 915.5 0.8 93
2019-10-01 09:00:00 10.7 3 Noroeste 7 Oeste 0 915 0.8 93
2019-10-01 08:00:00 10.8 0 Calma 13 Noroeste 0.1 914.5 0.3 93
2019-10-01 07:00:00 11.8 5 Este 14 Oeste 0 914.7 0.1 93
2019-10-01 06:00:00 12.4 0 Calma 4 Noroeste 0 914.2 -1.2 93
2019-10-01 05:00:00 12 2 Oeste 6 Noroeste 0 914.2 -1.8 93
2019-10-01 04:00:00 12.8 5 Noroeste 8 Noroeste 0 914.6 -1.5 93
2019-10-01 03:00:00 13 5 Oeste 9 Oeste 0 915.4 -0.9 93
2019-10-01 02:00:00 13.8 3 Oeste 6 Oeste 0 916 -0.6 93
2019-10-01 01:00:00 12.8 2 Noroeste 4 Noroeste 0 916.1 -0.4 93
2019-10-01 00:00:00 12.7 0 Calma 10 Sudeste 0 916.3 0.2 92
2019-09-30 23:00:00 14.2 2 Sur 7 Sur 0 916.6 0.5 91
2019-09-30 22:00:00 14.9 2 Sudoeste 8 Sudeste 0 916.5 0.7 85
2019-09-30 21:00:00 17.3 3 Este 12 Este 0 916.1 0.2 76
2019-09-30 20:00:00 20.7 7 Sudoeste 21 Sudoeste 0 916.1 -0.4 48
2019-09-30 19:00:00 22.6 8 Sudoeste 26 Sudoeste 0 915.8 -1.6 43
2019-09-30 18:00:00 24.1 10 Sudoeste 27 Sudoeste 0 915.9 -2.2 41
2019-09-30 17:00:00 23.8 11 Sudeste 22 Sur 0 916.5 -2.6 40
2019-09-30 16:00:00 23 11 Sur 22 Sur 0 917.4 -2.1 40
2019-09-30 15:00:00 22.2 12 Sur 21 Sur 0 918.1 -1.9 42
2019-09-30 14:00:00 21.1 9 Sur 19 Sur 0 919.1 -1.1 47
2019-09-30 13:00:00 20.4 4 Este 10 Este 0 919.5 -0.4 58
2019-09-30 12:00:00 17.3 2 Este 7 Este 0 920 0.1 68
2019-09-30 11:00:00 14.8 0 Calma 5 Este 0 920.2 0.7 73
2019-09-30 10:00:00 10.9 0 Calma 3 Sur 0 919.9 0.6 93
2019-09-30 09:00:00 5.5 0 Calma 5 Oeste 0 919.9 0.5 93
2019-09-30 08:00:00 5.1 3 Noroeste 5 Sudoeste 0 919.5 0.2 93
2019-09-30 07:00:00 4.2 0 Calma 5 Sudoeste 0 919.3 -0.5 93
2019-09-30 06:00:00 6.2 0 Calma 4 Oeste 0 919.4 -0.8 93
2019-09-30 05:00:00 6.7 3 Noroeste 6 Oeste 0 919.3 -1 93
2019-09-30 04:00:00 8 2 Sudoeste 8 Sudoeste 0 919.8 -0.6 93
2019-09-30 03:00:00 9.1 2 Sudoeste 7 Oeste 0 920.2 -0.4 93
2019-09-30 02:00:00 8.7 3 Oeste 7 Oeste 0 920.3 -0.2 92
2019-09-30 01:00:00 9.4 4 Noroeste 8 Oeste 0 920.4 0.1 93
2019-09-30 00:00:00 9.3 5 Oeste 7 Noroeste 0 920.6 1.2 91
2019-09-29 23:00:00 10.8 3 Norte 8 Noroeste 0 920.5 1.5 88
2019-09-29 22:00:00 11.9 0 Calma 8 Este 0 920.3 1.7 83
2019-09-29 21:00:00 15 3 Sur 6 Sudeste 0 919.4 1.1 68
2019-09-29 20:00:00 16.8 0 Calma 15 Nordeste 0 919 0.8 61
2019-09-29 19:00:00 19.6 6 Nordeste 21 Este 0 918.6 0.8 50
2019-09-29 18:00:00 20.9 13 Nordeste 24 Este 0 918.3 0.5 43
2019-09-29 17:00:00 22.4 11 Nordeste 27 Nordeste 0 918.2 -0.1 36
2019-09-29 16:00:00 24.6 5 Sudeste 26 Sudoeste 0 917.8 -0.5 33
2019-09-29 15:00:00 24.6 15 Sudoeste 32 Sur 0 917.8 -0.6 32
2019-09-29 14:00:00 23.7 17 Sudoeste 35 Sur 0 918.3 0.1 33
2019-09-29 13:00:00 22.8 17 Sudoeste 32 Sudoeste 0 918.3 0.6 34
2019-09-29 12:00:00 22.3 9 Sudoeste 26 Sudoeste 0 918.4 0.8 32
2019-09-29 11:00:00 20.9 8 Sur 22 Sudeste 0 918.2 0.7 28
2019-09-29 10:00:00 14.6 3 Noroeste 14 Noroeste 0 917.7 0.2 55
2019-09-29 09:00:00 8.8 4 Oeste 17 Sudeste 0 917.6 0.1 72
2019-09-29 08:00:00 6.5 6 Oeste 15 Oeste 0 917.5 -0.4 76
2019-09-29 07:00:00 9.4 3 Sudoeste 13 Noroeste 0 917.5 -0.4 67
2019-09-29 06:00:00 10.1 3 Noroeste 10 Nordeste 0 917.5 -0.8 61
2019-09-29 05:00:00 12 2 Norte 15 Sudoeste 0 917.9 -0.6 53
2019-09-29 04:00:00 14.3 8 Sur 19 Sudoeste 0 917.9 -1 45
2019-09-29 03:00:00 15.7 7 Oeste 18 Oeste 0 918.3 -0.8 45
2019-09-29 02:00:00 11.5 5 Sudoeste 18 Noroeste 0 918.5 -0.8 60
2019-09-29 01:00:00 12 4 Oeste 19 Noroeste 0 918.9 -0.2 61
2019-09-29 00:00:00 8.4 5 Oeste 17 Oeste 0 919.1 0.2 75
2019-09-28 23:00:00 9.6 6 Oeste 14 Oeste 0 919.3 0.6 76
2019-09-28 22:00:00 11.9 3 Noroeste 26 Sur 0 919.1 0.5 66
2019-09-28 21:00:00 15.3 0 Calma 14 Este 0 918.9 0.1 62
2019-09-28 20:00:00 16.7 5 Este 15 Sur 0 918.7 -0.4 64
2019-09-28 19:00:00 21.8 11 Sur 23 Sur 0 918.6 -1 29
2019-09-28 18:00:00 23 10 Sudoeste 25 Sudoeste 0 918.8 -1.5 28
2019-09-28 17:00:00 23.1 12 Sur 34 Sudeste 0 919.1 -2.1 30
2019-09-28 16:00:00 22.6 18 Sur 35 Sur 0 919.6 -2.1 32
2019-09-28 15:00:00 21.6 13 Sur 26 Sudeste 0 920.3 -1.7 39
2019-09-28 14:00:00 20.7 10 Sur 27 Sudeste 0 921.2 -0.8 43
2019-09-28 13:00:00 19.1 5 Sur 20 Sudeste 0 921.7 -0.2 51
2019-09-28 12:00:00 17 6 Sur 18 Sur 0 922 0.1 57
2019-09-28 11:00:00 15.5 8 Sur 18 Sudeste 0 922 0.2 64
2019-09-28 10:00:00 13.3 2 Norte 8 Sudeste 0 921.9 0.4 84
2019-09-28 09:00:00 10.8 3 Norte 5 Norte 0 921.9 -0.2 91
2019-09-28 08:00:00 11.7 2 Este 3 Este 0 921.8 -0.2 92
2019-09-28 07:00:00 11.7 0 Calma 3 Sudoeste 0 921.5 -0.7 92
2019-09-28 06:00:00 11.7 0 Calma 4 Sudeste 0 922.1 -0.2 92
2019-09-28 05:00:00 11.6 0 Calma 4 Este 0 922 -0.5 92
2019-09-28 04:00:00 11.7 0 Calma 4 Nordeste 0 922.2 -0.4 92
2019-09-28 03:00:00 11.6 2 Este 6 Este 0 922.3 -0.1 93
2019-09-28 02:00:00 11.3 3 Sudeste 5 Sudeste 0 922.5 -0.1 93
2019-09-28 01:00:00 11.1 4 Sudeste 6 Sudeste 0 922.6 0.4 93
2019-09-28 00:00:00 11.4 3 Sur 7 Sur 0 922.4 1 91
2019-09-27 23:00:00 11.6 3 Sur 8 Este 0 922.6 1.7 91
2019-09-27 22:00:00 12.2 4 Nordeste 18 Este 0 922.2 1.6 91
2019-09-27 21:00:00 12.7 7 Nordeste 22 Este 0 921.4 1.4 91
2019-09-27 20:00:00 13.7 10 Nordeste 21 Nordeste 0 920.9 1.3 91
2019-09-27 19:00:00 14.4 10 Este 25 Nordeste 0 920.6 1.1 92
2019-09-27 18:00:00 15.1 17 Nordeste 33 Nordeste 0 920 0.1 87
2019-09-27 17:00:00 19.4 12 Nordeste 23 Este 0 919.6 -0.8 63
2019-09-27 16:00:00 19.3 10 Nordeste 21 Nordeste 0 919.5 -1 53
2019-09-27 15:00:00 21 5 Sudeste 17 Este 0 919.9 -1 37
2019-09-27 14:00:00 19.9 10 Sudeste 21 Sudeste 0 920.4 -0.6 43
2019-09-27 13:00:00 19 6 Sudeste 16 Este 0 920.5 -0.2 50
2019-09-27 12:00:00 17 9 Sur 16 Sudeste 0 920.9 0.4 61
2019-09-27 11:00:00 15 6 Sudeste 9 Sudeste 0 921 0.7 73
2019-09-27 10:00:00 11.9 3 Sudoeste 5 Sur 0 920.7 0.4 86
2019-09-27 09:00:00 8.4 2 Oeste 12 Sudoeste 0 920.5 0.5 90
2019-09-27 08:00:00 6.7 7 Oeste 10 Oeste 0 920.3 0.1 94
2019-09-27 07:00:00 5.9 5 Sudoeste 7 Sudoeste 0 920.3 -0.1 94
2019-09-27 06:00:00 5.9 0 Calma 8 Oeste 0 920 -0.5 94
2019-09-27 05:00:00 5.5 0 Calma 8 Norte 0 920.2 -0.2 94
2019-09-27 04:00:00 8 0 Calma 5 Sudoeste 0 920.4 -0.1 94
2019-09-27 03:00:00 9.3 5 Oeste 9 Oeste 0 920.5 0.3 94
2019-09-27 02:00:00 10.9 3 Noroeste 9 Oeste 0 920.4 0.4 94
2019-09-27 01:00:00 9.3 2 Sudoeste 8 Este 0 920.5 0.6 94
2019-09-27 00:00:00 10 5 Oeste 8 Oeste 0 920.2 0.6 92
2019-09-26 23:00:00 10.6 3 Oeste 6 Oeste 0 920 0.5 91
2019-09-26 22:00:00 12.1 0 Calma 7 Sudoeste 0 919.9 1 90
2019-09-26 21:00:00 13.2 3 Noroeste 8 Sur 0 919.6 1 87
2019-09-26 20:00:00 15.7 2 Sur 14 Este 0 919.5 0.9 83
2019-09-26 19:00:00 18.1 8 Este 19 Este 0 918.9 0.4 74
2019-09-26 18:00:00 20.5 12 Este 25 Nordeste 0 918.6 -0.1 61
2019-09-26 17:00:00 22.3 13 Este 24 Este 0 918.6 -0.8 42
2019-09-26 16:00:00 23.3 13 Sur 26 Sur 0 918.5 -0.9 30
2019-09-26 15:00:00 22.4 15 Sur 24 Sur 0 918.7 -0.6 34
2019-09-26 14:00:00 20.8 8 Este 21 Este 0 919.4 -0.1 44
2019-09-26 13:00:00 20.4 3 Este 13 Norte 0 919.4 0 43
2019-09-26 12:00:00 17.6 2 Este 9 Este 0 919.3 0 56
2019-09-26 11:00:00 14.7 3 Oeste 10 Norte 0 919.5 0.3 75
2019-09-26 10:00:00 13 0 Calma 8 Noroeste 0 919.4 0.3 83
2019-09-26 09:00:00 10.9 3 Sudeste 5 Este 0 919.3 0.3 93
2019-09-26 08:00:00 10.7 2 Este 6 Este 0 919.2 0.3 93
2019-09-26 07:00:00 10.8 0 Calma 7 Sur 0 919.1 0.1 92
2019-09-26 06:00:00 10.7 2 Sur 8 Este 0 919 -0.4 92
2019-09-26 05:00:00 11.4 5 Este 8 Este 0 918.9 -0.7 92
2019-09-26 04:00:00 11.8 0 Calma 5 Sudeste 0 919 -1 92
2019-09-26 03:00:00 12.1 2 Noroeste 5 Oeste 0 919.4 -0.5 93
2019-09-26 02:00:00 12.1 0 Calma 2 Oeste 0 919.6 -0.1 93
2019-09-26 01:00:00 11.6 0 Calma 3 Este 0 920 0.6 93
2019-09-26 00:00:00 10.9 0 Calma 4 Sudeste 0 919.9 0.8 93
2019-09-25 23:00:00 11.9 2 Sudeste 7 Este 0 919.7 0.9 91
2019-09-25 22:00:00 11.8 0 Calma 6 Sur 0 919.4 0.8 88
2019-09-25 21:00:00 13 0 Calma 8 Este 0 919.1 0.7 84
2019-09-25 20:00:00 14.8 6 Este 14 Este 0 918.8 0.3 78
2019-09-25 19:00:00 16.6 9 Este 14 Este 0 918.6 0 68
2019-09-25 18:00:00 17.7 6 Nordeste 16 Este 0 918.4 -0.4 61
2019-09-25 17:00:00 17.6 10 Nordeste 19 Nordeste 0 918.5 -1.1 57
2019-09-25 16:00:00 18.2 8 Sudeste 23 Sur 0 918.6 -1.2 50
2019-09-25 15:00:00 18 10 Sur 22 Sudeste 0 918.8 -1 50
2019-09-25 14:00:00 17 10 Sudeste 22 Sur 0 919.6 -0.2 51
2019-09-25 13:00:00 16.5 11 Sur 25 Sur 0 919.8 0.1 57
2019-09-25 12:00:00 15.8 11 Sur 19 Sur 0 919.8 0.4 55
2019-09-25 11:00:00 13.2 3 Norte 7 Norte 0 919.8 1 76
2019-09-25 10:00:00 10.5 0 Calma 9 Oeste 0 919.7 1.3 86
2019-09-25 09:00:00 8.1 3 Oeste 9 Oeste 0 919.4 1.1 91
2019-09-25 08:00:00 7.9 5 Oeste 9 Noroeste 0 918.8 0.5 93
2019-09-25 07:00:00 9.5 0 Calma 7 Sur 0 918.4 0.4 93
2019-09-25 06:00:00 9.7 3 Sudoeste 5 Sudoeste 0 918.3 -0.3 92
2019-09-25 05:00:00 11.3 0 Calma 4 Norte 0 918.3 -0.2 92
2019-09-25 04:00:00 11.1 3 Sur 5 Sur 0 918 -0.6 91
2019-09-25 03:00:00 11.4 3 Este 10 Nordeste 0 918.6 -0.2 91
2019-09-25 02:00:00 11.5 5 Nordeste 11 Nordeste 0 918.5 -0.5 90
2019-09-25 01:00:00 11.6 2 Este 9 Sudeste 0 918.6 -0.3 89
2019-09-25 00:00:00 11.7 3 Sudeste 7 Sudeste 0 918.8 0.5 86
2019-09-24 23:00:00 12.1 0 Calma 8 Sudeste 0 919 1.3 85
2019-09-24 22:00:00 12.5 0 Calma 12 Norte 0 918.9 1.5 84
2019-09-24 21:00:00 12.8 5 Norte 17 Norte 0 918.3 1.5 83
2019-09-24 20:00:00 13.1 8 Nordeste 23 Nordeste 0 917.7 1.2 91
2019-09-24 19:00:00 13.5 12 Nordeste 28 Este 0 917.4 0.5 90
2019-09-24 18:00:00 15.2 16 Nordeste 31 Nordeste 0 916.8 0.2 84
2019-09-24 17:00:00 16.4 17 Este 23 Este 0 916.5 -0.3 76
2019-09-24 16:00:00 18.1 13 Sudoeste 42 Sudoeste 0 916.9 -0.4 65
2019-09-24 15:00:00 17 22 Sudoeste 48 Sudoeste 0 916.6 -0.7 68
2019-09-24 14:00:00 17.4 28 Sudoeste 46 Sur 0 916.8 -0.6 69
2019-09-24 13:00:00 17.6 19 Sur 42 Sudoeste 0 917.3 0.4 67
2019-09-24 12:00:00 17.6 12 Sur 23 Sudoeste 0 917.3 0.7 64
2019-09-24 11:00:00 16.3 14 Sudoeste 32 Sur 0 917.4 1.4 70
2019-09-24 10:00:00 15.2 15 Sudoeste 40 Sur 0 916.9 0.9 72
2019-09-24 09:00:00 13.8 6 Sudoeste 33 Sudeste 0 916.6 0.7 76
2019-09-24 08:00:00 12.5 17 Sur 32 Sudoeste 0 916 0.1 78
2019-09-24 07:00:00 13.7 23 Sur 41 Sur 0 916 -0.6 64
2019-09-24 06:00:00 16.6 15 Sudeste 39 Sur 0 915.9 -1 43
2019-09-24 05:00:00 16.5 0 Calma 29 Sudoeste 0 915.9 -1.4 50
2019-09-24 04:00:00 15.6 10 Sudeste 26 Sur 0 916.6 -0.8 53
2019-09-24 03:00:00 16.8 6 Este 29 Sudoeste 0 916.9 -1.2 47
2019-09-24 02:00:00 17 12 Oeste 37 Sudoeste 0 917.3 -1.5 50
2019-09-24 01:00:00 17 3 Sudeste 25 Oeste 0 917.4 -1.5 49
2019-09-24 00:00:00 18.2 13 Sur 54 Sur 0 918.1 -0.5 47
2019-09-23 23:00:00 17.5 11 Sudoeste 36 Sudoeste 0 918.8 0.4 47
2019-09-23 22:00:00 17.3 15 Sudoeste 33 Sudoeste 0 918.9 0.4 48
2019-09-23 21:00:00 16.4 15 Sur 31 Sur 0 918.6 -0.2 52
2019-09-23 20:00:00 16.7 10 Sur 34 Sur 0 918.4 0 50
2019-09-23 19:00:00 16.8 9 Sur 28 Sur 0 918.5 -0.2 49
2019-09-23 18:00:00 17 10 Sur 30 Sur 0 918.8 0.1 47
2019-09-23 17:00:00 17.4 8 Sur 37 Sur 0 918.4 -0.5 47
2019-09-23 16:00:00 16.7 15 Sur 37 Sudoeste 0 918.7 -0.2 49
2019-09-23 15:00:00 16.6 19 Sudoeste 41 Sudoeste 0 918.7 -0.8 52
2019-09-23 14:00:00 15.9 22 Sudoeste 40 Sur 0 918.9 -0.4 56
2019-09-23 13:00:00 14.5 20 Sur 37 Sudoeste 0 918.9 -0.3 59
2019-09-23 12:00:00 14.7 17 Sur 35 Sur 0 919.5 0.3 53
2019-09-23 11:00:00 13.1 11 Sudoeste 27 Sudoeste 0 919.3 0.3 67
2019-09-23 10:00:00 10.6 2 Oeste 14 Sudeste 0 919.2 0.2 87
2019-09-23 09:00:00 10.2 11 Sur 21 Sudeste 0 919.2 0.5 86
2019-09-23 08:00:00 9.5 4 Sur 13 Sudoeste 0 919 0.4 93
2019-09-23 07:00:00 8.2 0 Calma 10 Sudeste 0 919 0.2 93
2019-09-23 06:00:00 7.7 3 Oeste 8 Oeste 0 918.7 -0.3 93
2019-09-23 05:00:00 7.5 4 Oeste 7 Noroeste 0 918.6 -0.4 93
2019-09-23 04:00:00 8.1 2 Sudoeste 7 Sudoeste 0 918.8 0 94
2019-09-23 03:00:00 8.4 2 Oeste 6 Noroeste 0 919 0.5 94
2019-09-23 02:00:00 7.6 2 Norte 8 Oeste 0 919 0.3 93
2019-09-23 01:00:00 7.3 5 Oeste 9 Oeste 0 918.8 0.6 93
2019-09-23 00:00:00 8.6 0 Calma 6 Oeste 0 918.5 1.1 93
2019-09-22 23:00:00 9.2 3 Oeste 5 Noroeste 0 918.7 1.6 92
2019-09-22 22:00:00 10.6 2 Sudoeste 5 Sur 0 918.2 1.6 91
2019-09-22 21:00:00 12.7 3 Sudeste 9 Sudeste 0.3 917.4 1.6 90
2019-09-22 20:00:00 13.8 3 Este 25 Nordeste 0 917.1 1.9 79
2019-09-22 19:00:00 14.7 12 Nordeste 22 Nordeste 0 916.6 1.7 75
2019-09-22 18:00:00 15.2 8 Nordeste 25 Nordeste 0 915.8 1.4 73
2019-09-22 17:00:00 15.6 13 Nordeste 26 Este 0 915.2 0.7 66
2019-09-22 16:00:00 17.8 13 Noroeste 34 Sur 0 914.9 0.5 54
2019-09-22 15:00:00 18.2 14 Sudoeste 31 Sur 0 914.4 0.1 43
2019-09-22 14:00:00 16.8 18 Sur 33 Sur 0 914.5 0.5 46
2019-09-22 13:00:00 16.7 14 Sudoeste 32 Sudoeste 0 914.4 1.1 51
2019-09-22 12:00:00 15.7 14 Sudoeste 29 Sudoeste 0 914.3 1.7 56
2019-09-22 11:00:00 13 9 Sudoeste 34 Sudoeste 0 914 2 72
2019-09-22 10:00:00 11.4 16 Sur 33 Sudoeste 0 913.3 2.6 78
2019-09-22 09:00:00 9.7 2 Sudoeste 12 Sudoeste 0 912.6 2.3 86
2019-09-22 08:00:00 9.7 5 Sur 25 Sudoeste 0 912 2.4 84
2019-09-22 07:00:00 10.8 14 Sur 28 Sur 0 910.7 0.8 78
2019-09-22 06:00:00 11.5 9 Sur 23 Sur 0 910.3 0.6 77
2019-09-22 05:00:00 14 13 Sur 30 Sur 0 909.6 0.1 74
2019-09-22 04:00:00 15.2 6 Sudoeste 41 Sur 0.4 909.9 0.3 76
2019-09-22 03:00:00 15.7 15 Sudoeste 43 Sur 0.5 909.7 -0.3 79
2019-09-22 02:00:00 16.1 17 Sudoeste 53 Sur 0.2 909.5 -0.7 82
2019-09-22 01:00:00 15.9 19 Sur 58 Sur 1 909.6 -0.3 85
2019-09-22 00:00:00 15.9 19 Sur 57 Sur 0.2 910 0.9 83
2019-09-21 23:00:00 15.8 17 Sudoeste 54 Sudoeste 0.1 910.2 0.2 84
2019-09-21 22:00:00 16.2 22 Sur 75 Sur 0 909.9 -0.3 79
2019-09-21 21:00:00 16.5 28 Sur 64 Sur 0 909.1 -1.5 78
2019-09-21 20:00:00 16.3 21 Sur 46 Sudoeste 0 910 -0.8 83
2019-09-21 19:00:00 16 17 Sudoeste 41 Sudoeste 0.3 910.2 -0.9 82
2019-09-21 18:00:00 16.2 13 Sur 51 Sudoeste 0 910.6 -0.3 78
2019-09-21 17:00:00 16 14 Sudoeste 46 Sudeste 0 910.8 -0.6 79
2019-09-21 16:00:00 16.2 15 Sur 53 Sudoeste 0 911.1 -1 74
2019-09-21 15:00:00 17 14 Sudoeste 46 Sudoeste 0 910.9 -1.2 64
2019-09-21 14:00:00 17 15 Sudoeste 42 Sudoeste 0 911.4 -0.6 65
2019-09-21 13:00:00 16.8 15 Sudoeste 42 Sur 0 912.1 0.1 64
2019-09-21 12:00:00 17.1 17 Sudoeste 44 Sudoeste 0 912.1 0.3 68
2019-09-21 11:00:00 16.1 17 Sur 36 Sudoeste 0 912 -0.1 71
2019-09-21 10:00:00 15.7 10 Sur 34 Sur 0 912 -0.2 78
2019-09-21 09:00:00 15.2 14 Sur 35 Sudoeste 0 911.8 -0.5 78
2019-09-21 08:00:00 14.7 13 Sur 33 Oeste 0 912.1 -0.3 83
2019-09-21 07:00:00 14.8 15 Sur 33 Sur 0 912.2 -0.3 78
2019-09-21 06:00:00 14.9 15 Sur 36 Sudoeste 0.1 912.3 -1 76
2019-09-21 05:00:00 15.4 17 Sudoeste 35 Sudoeste 0 912.4 -1.5 77
2019-09-21 04:00:00 15.1 7 Sudoeste 24 Sudoeste 0 912.5 -2.3 82
2019-09-21 03:00:00 14 6 Sur 25 Sudeste 0 913.3 -1.3 91
2019-09-21 02:00:00 14.8 4 Sur 21 Sur 0.4 913.9 -1.2 89
2019-09-21 01:00:00 14.7 5 Sudeste 20 Sudeste 0 914.8 0.3 86
2019-09-21 00:00:00 15.1 11 Sudeste 16 Sudeste 0.9 914.6 0.5 86
2019-09-20 23:00:00 15.3 2 Sur 17 Sur 1.5 915.1 0.2 83
2019-09-20 22:00:00 15.8 10 Sur 16 Sur 0.1 914.5 -0.8 82
2019-09-20 21:00:00 15.2 2 Sudoeste 12 Noroeste 1.3 914.1 -1 91
2019-09-20 20:00:00 15.5 0 Calma 19 Sudeste 4.3 914.9 -0.3 86
2019-09-20 19:00:00 15.5 9 Oeste 12 Oeste 0.6 915.3 0.2 87
2019-09-20 18:00:00 16.4 3 Noroeste 23 Sudoeste 0.5 915.1 -0.4 78
2019-09-20 17:00:00 18.5 11 Sur 23 Sudoeste 0.2 915.2 -0.8 70
2019-09-20 16:00:00 21.4 14 Sudeste 23 Sudeste 0 915.1 -1 47
2019-09-20 15:00:00 20.7 12 Sur 35 Sur 0 915.5 -1.6 52
2019-09-20 14:00:00 22.1 20 Sur 31 Sur 0 916 -1.1 53
2019-09-20 13:00:00 18.1 12 Sudeste 22 Sudeste 0 916.1 -1.2 70
2019-09-20 12:00:00 18.2 15 Sur 28 Sudeste 0 917.1 0 74
2019-09-20 11:00:00 15.9 16 Sudeste 26 Sudeste 0 917.1 0.1 85
2019-09-20 10:00:00 14.3 9 Sudeste 19 Sudeste 0 917.3 0.4 93
2019-09-20 09:00:00 10 4 Nordeste 7 Noroeste 0 917.1 0.1 93
2019-09-20 08:00:00 8.2 3 Noroeste 6 Noroeste 0 917 -0.3 93
2019-09-20 07:00:00 9 0 Calma 5 Noroeste 0 916.9 -0.8 93
2019-09-20 06:00:00 9.5 0 Calma 5 Sur 0 917 -1.1 93
2019-09-20 05:00:00 10.2 5 Sudoeste 9 Sudoeste 0 917.3 -1.1 93
2019-09-20 04:00:00 10.6 3 Sudoeste 6 Oeste 0 917.7 -1 93
2019-09-20 03:00:00 10.7 0 Calma 5 Oeste 0 918.1 -1.3 93
2019-09-20 02:00:00 11.6 2 Oeste 8 Sudoeste 0 918.4 -0.8 93
2019-09-20 01:00:00 12 4 Sudoeste 6 Sudoeste 0 918.7 -0.2 93
2019-09-20 00:00:00 12.4 0 Calma 7 Sudoeste 0 919.4 0.5 93